Time;durP1;ratioP1;P1;durP2;ratioP2;P2;SDS_P1;SDS_P2;PMS_P1;PMS_P2;Temp;Humidity;BMP_temperature;BMP_pressure;BME280_temperature;BME280_humidity;BME280_pressure;Samples;Min_cycle;Max_cycle;Signal;HPM_P1;HPM_P2
2022/01/23 00:01:05;;;;;;;;;;;21.80;55.20;;;;;;4977642;28;1326;-40
2022/01/23 00:03:32;;;;;;;;;;;21.80;55.20;;;;;;4977182;28;925;-40
2022/01/23 00:05:59;;;;;;;;;;;21.80;55.10;;;;;;4977457;28;929;-40
2022/01/23 00:08:27;;;;;;;;;;;21.80;55.00;;;;;;4977753;28;946;-41
2022/01/23 00:10:55;;;;;;;;;;;21.90;55.00;;;;;;4977609;28;1011;-40
2022/01/23 00:13:29;;;;;;;;;;;21.90;54.90;;;;;;4976377;28;934;-40
2022/01/23 00:18:40;;;;;;;;;;;21.90;55.10;;;;;;4976879;28;1989;-40
2022/01/23 00:21:07;;;;;;;;;;;21.90;55.00;;;;;;4977805;28;955;-40
2022/01/23 00:30:19;;;;;;;;;;;21.90;55.00;;;;;;4977347;28;976;-40
2022/01/23 00:31:51;;;;;;;;;;;21.80;55.20;;;;;;4977120;28;933;-40
2022/01/23 00:34:19;;;;;;;;;;;21.80;55.10;;;;;;4976857;28;1041;-40
2022/01/23 00:36:46;;;;;;;;;;;21.80;56.20;;;;;;4976121;28;1012;-40
2022/01/23 00:39:14;;;;;;;;;;;21.80;55.20;;;;;;4976729;28;1989;-40
2022/01/23 00:41:41;;;;;;;;;;;21.80;55.10;;;;;;4977161;28;969;-40
2022/01/23 00:44:07;;;;;;;;;;;21.80;55.10;;;;;;4977022;28;942;-39
2022/01/23 00:46:36;;;;;;;;;;;21.80;55.20;;;;;;4976990;28;1510;-40
2022/01/23 00:49:25;;;;;;;;;;;21.80;55.20;;;;;;4976690;28;1009;-40
2022/01/23 00:51:52;;;;;;;;;;;21.80;55.20;;;;;;4976701;28;1091;-40
2022/01/23 00:54:20;;;;;;;;;;;21.70;55.10;;;;;;4977105;28;1003;-40
2022/01/23 00:56:47;;;;;;;;;;;21.80;55.00;;;;;;4976990;28;983;-40
2022/01/23 00:59:13;;;;;;;;;;;21.80;55.10;;;;;;4976931;28;1988;-40
2022/01/23 01:01:40;;;;;;;;;;;21.80;55.00;;;;;;4976513;28;1013;-39
2022/01/23 01:04:07;;;;;;;;;;;21.80;55.00;;;;;;4976457;28;992;-40
2022/01/23 01:06:33;;;;;;;;;;;21.80;55.00;;;;;;4976532;28;1460;-40
2022/01/23 01:09:05;;;;;;;;;;;21.80;55.10;;;;;;4976145;28;986;-40
2022/01/23 01:11:55;;;;;;;;;;;21.70;55.00;;;;;;4976409;28;1119;-40
2022/01/23 01:14:31;;;;;;;;;;;21.70;55.10;;;;;;4975847;28;950;-40
2022/01/23 01:17:06;;;;;;;;;;;21.70;55.10;;;;;;4975576;28;990;-40
2022/01/23 01:30:37;;;;;;;;;;;21.70;55.10;;;;;;4975724;28;897;-40
2022/01/23 01:33:14;;;;;;;;;;;21.70;55.00;;;;;;4975732;28;1014;-40
2022/01/23 01:35:47;;;;;;;;;;;21.70;55.10;;;;;;4976021;28;1003;-40
2022/01/23 01:38:13;;;;;;;;;;;21.60;55.20;;;;;;4976462;28;1906;-40
2022/01/23 01:40:41;;;;;;;;;;;21.70;55.00;;;;;;4976802;28;1052;-40
2022/01/23 01:43:09;;;;;;;;;;;21.70;55.00;;;;;;4976550;28;1384;-40
2022/01/23 01:45:38;;;;;;;;;;;21.70;55.00;;;;;;4975276;28;1021;-39
2022/01/23 01:48:05;;;;;;;;;;;21.70;55.00;;;;;;4975945;28;977;-39
2022/01/23 01:50:33;;;;;;;;;;;21.70;54.90;;;;;;4976443;28;934;-39
2022/01/23 01:53:00;;;;;;;;;;;21.70;55.00;;;;;;4975857;28;977;-39
2022/01/23 01:55:29;;;;;;;;;;;21.70;55.00;;;;;;4976098;28;950;-39
2022/01/23 01:58:01;;;;;;;;;;;21.70;55.10;;;;;;4979260;28;980;-39
2022/01/23 02:00:46;;;;;;;;;;;21.70;54.90;;;;;;4979470;28;1095;-39
2022/01/23 02:08:44;;;;;;;;;;;21.70;54.90;;;;;;4979250;28;679;-39
2022/01/23 02:11:15;;;;;;;;;;;21.70;54.70;;;;;;4978759;28;1020;-39
2022/01/23 02:13:47;;;;;;;;;;;21.70;54.80;;;;;;4979163;28;1036;-39
2022/01/23 02:52:04;;;;;;;;;;;21.60;54.70;;;;;;4978770;28;1130;-42
2022/01/23 02:54:56;;;;;;;;;;;21.70;54.60;;;;;;4978835;28;890;-42
2022/01/23 02:57:38;;;;;;;;;;;21.70;54.40;;;;;;4978549;28;958;-41
2022/01/23 03:00:11;;;;;;;;;;;21.60;54.60;;;;;;4978215;28;1985;-42
2022/01/23 03:02:42;;;;;;;;;;;21.60;54.60;;;;;;4978747;28;969;-39
2022/01/23 03:05:12;;;;;;;;;;;21.60;54.50;;;;;;4978665;28;1277;-39
2022/01/23 03:07:55;;;;;;;;;;;21.70;54.50;;;;;;4978643;28;1031;-39
2022/01/23 03:10:26;;;;;;;;;;;21.70;54.30;;;;;;4979042;28;1015;-39
2022/01/23 03:24:19;;;;;;;;;;;21.60;54.40;;;;;;4988976;28;1126;-39
2022/01/23 03:27:01;;;;;;;;;;;21.70;54.30;;;;;;4978667;28;1177;-39
2022/01/23 03:29:39;;;;;;;;;;;21.70;54.30;;;;;;4978755;28;1028;-39
2022/01/23 03:32:19;;;;;;;;;;;21.70;54.20;;;;;;4978874;28;922;-39
2022/01/23 03:34:46;;;;;;;;;;;21.60;55.50;;;;;;4978482;28;980;-39
2022/01/23 03:37:13;;;;;;;;;;;21.60;54.40;;;;;;4978466;28;1048;-39
2022/01/23 03:39:39;;;;;;;;;;;21.60;54.40;;;;;;4978461;28;1980;-39
2022/01/23 03:42:08;;;;;;;;;;;21.60;54.40;;;;;;4978468;28;921;-39
2022/01/23 03:44:40;;;;;;;;;;;21.60;54.40;;;;;;4978473;28;1040;-39
2022/01/23 03:47:20;;;;;;;;;;;21.50;54.40;;;;;;4977493;28;1041;-39
2022/01/23 03:49:48;;;;;;;;;;;21.40;54.60;;;;;;4977632;28;958;-39
2022/01/23 03:52:15;;;;;;;;;;;21.50;54.60;;;;;;4978168;28;1012;-39
2022/01/23 03:54:42;;;;;;;;;;;21.50;54.50;;;;;;4977116;28;1000;-39
2022/01/23 03:57:10;;;;;;;;;;;21.50;54.60;;;;;;4978151;28;2308;-39
2022/01/23 03:59:37;;;;;;;;;;;21.50;54.60;;;;;;4978107;28;1985;-40
2022/01/23 04:02:05;;;;;;;;;;;21.50;54.60;;;;;;4977973;28;1849;-39
2022/01/23 04:04:41;;;;;;;;;;;21.50;54.60;;;;;;4978347;28;1028;-39
2022/01/23 04:07:09;;;;;;;;;;;21.50;54.60;;;;;;4978224;28;977;-40
2022/01/23 04:09:37;;;;;;;;;;;21.50;54.50;;;;;;4977655;28;938;-40
2022/01/23 04:12:05;;;;;;;;;;;21.50;54.60;;;;;;4977426;28;958;-40
2022/01/23 04:14:36;;;;;;;;;;;21.40;54.70;;;;;;4977711;28;997;-40
2022/01/23 04:20:08;;;;;;;;;;;21.40;54.60;;;;;;4976580;28;1902;-40
2022/01/23 04:33:46;;;;;;;;;;;21.40;54.50;;;;;;4977379;28;904;-40
2022/01/23 05:01:04;;;;;;;;;;;21.30;54.50;;;;;;4976698;28;1906;-40
2022/01/23 05:06:25;;;;;;;;;;;21.30;54.80;;;;;;4977082;28;730;-40
2022/01/23 05:08:52;;;;;;;;;;;21.20;54.80;;;;;;4977063;28;987;-40
2022/01/23 05:11:19;;;;;;;;;;;21.20;54.80;;;;;;4977268;28;998;-39
2022/01/23 05:13:46;;;;;;;;;;;21.20;55.00;;;;;;4976847;28;1175;-40
2022/01/23 05:16:13;;;;;;;;;;;21.20;55.00;;;;;;4977038;28;957;-39
2022/01/23 05:18:42;;;;;;;;;;;21.20;54.90;;;;;;4977103;28;949;-39
2022/01/23 05:21:28;;;;;;;;;;;21.30;54.90;;;;;;4976649;28;1910;-39
2022/01/23 05:23:55;;;;;;;;;;;21.20;54.90;;;;;;4976849;28;1057;-39
2022/01/23 05:26:22;;;;;;;;;;;21.20;55.00;;;;;;4977026;28;1026;-39
2022/01/23 05:28:49;;;;;;;;;;;21.20;55.00;;;;;;4977269;28;946;-39
2022/01/23 05:31:15;;;;;;;;;;;21.20;54.80;;;;;;4975284;28;1003;-39
2022/01/23 05:33:44;;;;;;;;;;;21.20;54.90;;;;;;4977033;28;1012;-39
2022/01/23 05:36:10;;;;;;;;;;;21.30;54.70;;;;;;4976747;28;954;-39
2022/01/23 05:38:37;;;;;;;;;;;21.20;54.60;;;;;;4976694;28;1033;-39
2022/01/23 05:41:04;;;;;;;;;;;21.30;54.70;;;;;;4976214;28;1895;-39
2022/01/23 05:43:31;;;;;;;;;;;21.20;54.70;;;;;;4976238;28;953;-39
2022/01/23 05:45:58;;;;;;;;;;;21.20;54.70;;;;;;4976116;28;1204;-39
2022/01/23 05:48:24;;;;;;;;;;;21.20;54.70;;;;;;4976448;28;976;-39
2022/01/23 05:50:52;;;;;;;;;;;21.30;54.60;;;;;;4976450;28;1024;-41
2022/01/23 05:53:19;;;;;;;;;;;21.30;54.60;;;;;;4976683;28;1022;-39
2022/01/23 05:55:46;;;;;;;;;;;21.30;54.50;;;;;;4976193;28;862;-40
2022/01/23 05:58:12;;;;;;;;;;;21.30;54.50;;;;;;4976362;28;1015;-39
2022/01/23 06:00:39;;;;;;;;;;;21.30;54.30;;;;;;4975831;28;1906;-39
2022/01/23 06:03:06;;;;;;;;;;;21.30;54.60;;;;;;4976233;28;980;-39
2022/01/23 06:05:32;;;;;;;;;;;21.20;54.60;;;;;;4976004;28;973;-39
2022/01/23 06:08:01;;;;;;;;;;;21.30;54.50;;;;;;4976086;28;1111;-39
2022/01/23 06:10:29;;;;;;;;;;;21.30;54.60;;;;;;4976135;28;948;-39
2022/01/23 06:12:56;;;;;;;;;;;21.20;54.60;;;;;;4976376;28;992;-39
2022/01/23 06:15:22;;;;;;;;;;;21.20;54.60;;;;;;4976404;28;932;-39
2022/01/23 06:17:49;;;;;;;;;;;21.20;54.70;;;;;;4976185;28;957;-39
2022/01/23 06:20:16;;;;;;;;;;;21.10;54.70;;;;;;4976002;28;1903;-39
2022/01/23 06:22:45;;;;;;;;;;;21.10;54.80;;;;;;4976104;28;987;-39
2022/01/23 06:25:15;;;;;;;;;;;21.10;54.90;;;;;;4976311;28;938;-40
2022/01/23 06:27:43;;;;;;;;;;;21.10;54.90;;;;;;4976016;28;957;-39
2022/01/23 06:30:10;;;;;;;;;;;21.10;54.90;;;;;;4975908;28;1055;-39
2022/01/23 06:32:37;;;;;;;;;;;21.10;54.70;;;;;;4975739;28;978;-39
2022/01/23 06:35:04;;;;;;;;;;;21.20;54.80;;;;;;4975782;28;918;-39
2022/01/23 06:37:30;;;;;;;;;;;21.10;54.80;;;;;;4975933;28;1070;-39
2022/01/23 06:39:57;;;;;;;;;;;21.10;54.80;;;;;;4975814;28;1912;-39
2022/01/23 06:42:25;;;;;;;;;;;21.10;54.90;;;;;;4976820;28;981;-39
2022/01/23 06:44:52;;;;;;;;;;;21.10;54.80;;;;;;4979435;28;1122;-39
2022/01/23 06:47:19;;;;;;;;;;;21.10;54.80;;;;;;4978676;28;1157;-39
2022/01/23 06:49:46;;;;;;;;;;;21.10;54.80;;;;;;4979671;28;934;-39
2022/01/23 06:52:12;;;;;;;;;;;21.10;54.70;;;;;;4980160;28;1025;-39
2022/01/23 06:54:39;;;;;;;;;;;21.10;54.70;;;;;;4978713;28;997;-39
2022/01/23 06:57:06;;;;;;;;;;;21.10;54.70;;;;;;4980981;28;996;-40
2022/01/23 06:59:34;;;;;;;;;;;21.10;54.70;;;;;;4979982;28;1898;-39
2022/01/23 07:02:01;;;;;;;;;;;21.10;54.70;;;;;;4978747;28;965;-39
2022/01/23 07:04:28;;;;;;;;;;;21.10;54.70;;;;;;4978753;28;1029;-39
2022/01/23 07:06:54;;;;;;;;;;;21.10;54.70;;;;;;4978322;28;994;-39
2022/01/23 07:09:21;;;;;;;;;;;21.10;54.60;;;;;;4978687;28;949;-39
2022/01/23 07:11:48;;;;;;;;;;;21.10;54.70;;;;;;4979097;28;949;-39
2022/01/23 07:14:14;;;;;;;;;;;21.10;54.70;;;;;;4978922;28;977;-39
2022/01/23 07:16:43;;;;;;;;;;;21.20;54.60;;;;;;4978115;28;1034;-39
2022/01/23 07:19:09;;;;;;;;;;;21.10;54.50;;;;;;4978581;28;1779;-39
2022/01/23 07:21:36;;;;;;;;;;;21.10;54.70;;;;;;4978208;28;1907;-39
2022/01/23 07:24:03;;;;;;;;;;;21.10;54.70;;;;;;4978430;28;1020;-39
2022/01/23 07:26:31;;;;;;;;;;;21.10;54.80;;;;;;4978651;28;882;-39
2022/01/23 07:29:00;;;;;;;;;;;21.00;54.80;;;;;;4978249;28;1128;-39
2022/01/23 07:31:55;;;;;;;;;;;21.00;54.80;;;;;;4978266;28;961;-40
2022/01/23 07:34:23;;;;;;;;;;;21.00;55.00;;;;;;4978623;28;920;-39
2022/01/23 07:36:50;;;;;;;;;;;21.00;54.90;;;;;;4977726;28;1050;-39
2022/01/23 07:39:16;;;;;;;;;;;21.10;54.70;;;;;;4977890;28;980;-39
2022/01/23 07:41:43;;;;;;;;;;;21.10;54.70;;;;;;4977435;28;1903;-39
2022/01/23 07:44:09;;;;;;;;;;;21.00;54.70;;;;;;4978059;28;934;-39
2022/01/23 07:46:36;;;;;;;;;;;21.00;54.70;;;;;;4977497;28;1117;-39
2022/01/23 07:49:03;;;;;;;;;;;21.10;54.70;;;;;;4977489;28;988;-39
2022/01/23 07:51:31;;;;;;;;;;;21.10;54.70;;;;;;4977772;28;938;-39
2022/01/23 07:53:58;;;;;;;;;;;21.00;54.80;;;;;;4975054;28;990;-39
2022/01/23 07:56:25;;;;;;;;;;;21.00;54.80;;;;;;4977206;28;1040;-39
2022/01/23 07:58:52;;;;;;;;;;;21.00;54.90;;;;;;4977457;28;1137;-39
2022/01/23 08:01:19;;;;;;;;;;;21.00;54.90;;;;;;4976374;28;1987;-39
2022/01/23 08:03:45;;;;;;;;;;;21.00;54.90;;;;;;4976336;28;917;-39
2022/01/23 08:06:13;;;;;;;;;;;21.00;54.90;;;;;;4975927;28;989;-39
2022/01/23 08:08:41;;;;;;;;;;;21.00;54.90;;;;;;4975096;28;1016;-39
2022/01/23 08:11:08;;;;;;;;;;;21.00;54.90;;;;;;4977194;28;1028;-39
2022/01/23 08:13:35;;;;;;;;;;;21.10;54.70;;;;;;4975701;28;1110;-39
2022/01/23 08:16:02;;;;;;;;;;;21.00;54.60;;;;;;4976876;28;987;-39
2022/01/23 08:18:28;;;;;;;;;;;21.10;54.70;;;;;;4976982;28;1006;-39
2022/01/23 08:20:55;;;;;;;;;;;21.00;54.80;;;;;;4975997;28;1906;-39
2022/01/23 08:23:22;;;;;;;;;;;21.10;54.70;;;;;;4976871;28;1018;-39
2022/01/23 08:25:50;;;;;;;;;;;21.10;54.80;;;;;;4975857;28;1012;-39
2022/01/23 08:28:17;;;;;;;;;;;21.10;54.90;;;;;;4976988;28;965;-39
2022/01/23 08:30:44;;;;;;;;;;;21.10;55.00;;;;;;4976055;28;916;-40
2022/01/23 08:33:11;;;;;;;;;;;21.20;55.00;;;;;;4975626;28;985;-40
2022/01/23 08:35:38;;;;;;;;;;;21.20;55.10;;;;;;4976093;28;1580;-40
2022/01/23 08:38:06;;;;;;;;;;;21.30;55.10;;;;;;4975424;28;1017;-40
2022/01/23 08:40:47;;;;;;;;;;;21.30;54.80;;;;;;4976057;28;1902;-40
2022/01/23 08:43:17;;;;;;;;;;;21.40;54.70;;;;;;4975445;28;1000;-40
2022/01/23 08:45:43;;;;;;;;;;;21.50;54.50;;;;;;4976296;28;1139;-40
2022/01/23 08:48:10;;;;;;;;;;;21.60;54.20;;;;;;4975411;28;954;-40
2022/01/23 08:50:37;;;;;;;;;;;21.70;54.00;;;;;;4976259;28;1768;-40
2022/01/23 08:53:04;;;;;;;;;;;21.80;54.00;;;;;;4975859;28;988;-40
2022/01/23 08:55:31;;;;;;;;;;;21.90;53.90;;;;;;4976161;28;923;-40
2022/01/23 08:57:58;;;;;;;;;;;21.90;54.00;;;;;;4975391;28;942;-40
2022/01/23 09:00:26;;;;;;;;;;;22.00;53.90;;;;;;4974690;28;1984;-40
2022/01/23 09:02:55;;;;;;;;;;;22.00;54.00;;;;;;4974828;28;878;-40
2022/01/23 09:05:23;;;;;;;;;;;21.90;54.40;;;;;;4975248;28;934;-40
2022/01/23 09:07:49;;;;;;;;;;;21.90;54.20;;;;;;4975122;28;976;-40
2022/01/23 09:10:24;;;;;;;;;;;21.90;54.30;;;;;;4975024;28;959;-38
2022/01/23 09:13:04;;;;;;;;;;;21.90;54.40;;;;;;4974799;28;1009;-38
2022/01/23 09:15:33;;;;;;;;;;;21.90;54.40;;;;;;4977728;28;954;-41
2022/01/23 09:17:59;;;;;;;;;;;21.90;54.40;;;;;;4976344;28;1014;-41
2022/01/23 09:20:26;;;;;;;;;;;21.90;54.30;;;;;;4976183;28;1977;-41
2022/01/23 09:22:53;;;;;;;;;;;21.90;54.40;;;;;;4975943;28;962;-42
2022/01/23 09:25:20;;;;;;;;;;;22.00;54.20;;;;;;4975989;28;1016;-40
2022/01/23 09:27:47;;;;;;;;;;;22.00;54.20;;;;;;4976366;28;1930;-41
2022/01/23 09:30:19;;;;;;;;;;;22.10;54.00;;;;;;4996265;28;961;-42
2022/01/23 09:32:48;;;;;;;;;;;22.00;53.90;;;;;;4996242;28;1042;-41
2022/01/23 09:35:15;;;;;;;;;;;22.10;53.90;;;;;;4995625;28;1070;-39
2022/01/23 09:37:42;;;;;;;;;;;22.10;53.90;;;;;;4995077;28;1035;-39
2022/01/23 09:40:10;;;;;;;;;;;22.10;53.80;;;;;;4994647;28;1911;-39
2022/01/23 09:42:42;;;;;;;;;;;22.10;53.90;;;;;;4995758;28;948;-39
2022/01/23 09:45:10;;;;;;;;;;;22.10;53.90;;;;;;4995128;28;1048;-42
2022/01/23 09:47:37;;;;;;;;;;;22.00;54.00;;;;;;4994518;28;992;-41
2022/01/23 09:50:06;;;;;;;;;;;22.10;54.00;;;;;;4995299;28;1007;-41
2022/01/23 09:52:35;;;;;;;;;;;22.10;53.90;;;;;;4995384;28;995;-41
2022/01/23 09:55:07;;;;;;;;;;;22.10;53.90;;;;;;4995452;28;1442;-42
2022/01/23 09:57:36;;;;;;;;;;;22.10;54.00;;;;;;4994165;28;975;-41
2022/01/23 10:00:06;;;;;;;;;;;22.10;54.00;;;;;;4994291;28;1000;-42
2022/01/23 10:02:33;;;;;;;;;;;22.00;54.10;;;;;;4993027;28;1906;-41
2022/01/23 10:05:00;;;;;;;;;;;22.00;54.20;;;;;;4994202;28;876;-41
2022/01/23 10:07:29;;;;;;;;;;;22.00;54.20;;;;;;4994393;28;1025;-40
2022/01/23 10:10:07;;;;;;;;;;;22.00;54.30;;;;;;4994697;28;1301;-39
2022/01/23 10:12:34;;;;;;;;;;;21.90;54.50;;;;;;4994928;28;998;-39
2022/01/23 10:15:00;;;;;;;;;;;21.80;54.50;;;;;;4993012;28;985;-39
2022/01/23 10:17:27;;;;;;;;;;;21.80;54.60;;;;;;4993116;28;979;-39
2022/01/23 10:19:54;;;;;;;;;;;21.90;55.00;;;;;;4997116;28;968;-39
2022/01/23 10:22:21;;;;;;;;;;;22.10;54.40;;;;;;4996251;28;2004;-40
2022/01/23 10:24:50;;;;;;;;;;;22.10;54.20;;;;;;4997295;28;932;-40
2022/01/23 10:27:17;;;;;;;;;;;22.20;53.80;;;;;;4996735;28;1031;-40
2022/01/23 10:29:47;;;;;;;;;;;22.40;53.40;;;;;;4997121;28;1000;-40
2022/01/23 10:32:18;;;;;;;;;;;22.30;53.40;;;;;;4995829;28;985;-39
2022/01/23 10:34:54;;;;;;;;;;;22.30;53.70;;;;;;4995366;28;916;-40
2022/01/23 10:37:32;;;;;;;;;;;22.20;53.70;;;;;;4993972;28;960;-40
2022/01/23 10:40:05;;;;;;;;;;;22.30;53.60;;;;;;4994310;28;956;-40
2022/01/23 10:48:27;;;;;;;;;;;22.30;53.50;;;;;;4993925;28;864;-42
2022/01/23 10:51:13;;;;;;;;;;;22.40;53.50;;;;;;4994441;28;948;-42
2022/01/23 10:53:54;;;;;;;;;;;22.40;53.40;;;;;;4993476;28;896;-42
2022/01/23 10:56:22;;;;;;;;;;;22.40;53.40;;;;;;4993970;28;992;-42
2022/01/23 10:58:56;;;;;;;;;;;22.40;53.40;;;;;;4994168;28;1249;-41
2022/01/23 11:01:23;;;;;;;;;;;22.40;54.10;;;;;;4995055;28;1981;-41
2022/01/23 11:04:03;;;;;;;;;;;22.30;53.90;;;;;;4994031;28;1124;-41
2022/01/23 11:06:30;;;;;;;;;;;22.20;54.00;;;;;;4992862;28;999;-41
2022/01/23 11:09:07;;;;;;;;;;;22.20;54.10;;;;;;4993353;28;1088;-41
2022/01/23 11:11:44;;;;;;;;;;;22.30;54.40;;;;;;4992964;28;929;-42
2022/01/23 11:19:43;;;;;;;;;;;22.00;54.50;;;;;;4994151;28;669;-42
2022/01/23 11:22:15;;;;;;;;;;;22.10;54.30;;;;;;4991473;28;1979;-42
2022/01/23 11:24:45;;;;;;;;;;;22.00;54.60;;;;;;4995241;28;948;-42
2022/01/23 11:27:13;;;;;;;;;;;22.00;54.70;;;;;;4995038;28;923;-42
2022/01/23 11:29:53;;;;;;;;;;;22.00;54.80;;;;;;4996273;28;983;-42
2022/01/23 11:32:20;;;;;;;;;;;22.00;54.80;;;;;;4995725;28;1030;-42
2022/01/23 11:34:49;;;;;;;;;;;21.90;54.60;;;;;;4994343;28;940;-42
2022/01/23 11:37:16;;;;;;;;;;;22.00;54.70;;;;;;4993322;28;1047;-42
2022/01/23 11:39:47;;;;;;;;;;;22.10;54.60;;;;;;4995225;28;948;-42
2022/01/23 11:51:06;;;;;;;;;;;22.00;54.50;;;;;;4994626;28;665;-42
2022/01/23 11:53:50;;;;;;;;;;;22.00;54.50;;;;;;4992917;28;1004;-42
2022/01/23 11:56:39;;;;;;;;;;;22.00;54.50;;;;;;4994586;28;908;-42
2022/01/23 11:59:19;;;;;;;;;;;22.00;54.50;;;;;;4993785;28;1903;-41
2022/01/23 12:01:47;;;;;;;;;;;22.00;54.50;;;;;;4993327;28;1914;-42
2022/01/23 12:04:16;;;;;;;;;;;22.00;54.50;;;;;;4993029;28;932;-43
2022/01/23 12:06:45;;;;;;;;;;;22.00;54.60;;;;;;4993512;28;1546;-42
2022/01/23 12:09:17;;;;;;;;;;;21.90;54.50;;;;;;4993825;28;1843;-42
2022/01/23 12:12:03;;;;;;;;;;;21.90;54.60;;;;;;4993908;28;948;-41
2022/01/23 12:17:21;;;;;;;;;;;21.90;54.70;;;;;;4993001;28;985;-42
2022/01/23 12:19:55;;;;;;;;;;;22.10;55.20;;;;;;4991231;28;936;-43
2022/01/23 12:22:35;;;;;;;;;;;22.20;55.00;;;;;;4993536;28;1899;-43
2022/01/23 12:25:10;;;;;;;;;;;22.20;55.00;;;;;;4993639;28;905;-43
2022/01/23 12:27:37;;;;;;;;;;;22.40;54.40;;;;;;4994668;28;963;-43
2022/01/23 12:30:31;;;;;;;;;;;22.40;54.40;;;;;;4993279;28;948;-43
2022/01/23 12:33:15;;;;;;;;;;;22.50;54.70;;;;;;4995491;28;1410;-42
2022/01/23 12:35:43;;;;;;;;;;;22.40;54.40;;;;;;4994405;28;1008;-41
2022/01/23 12:38:10;;;;;;;;;;;22.40;52.70;;;;;;4993442;28;1004;-42
2022/01/23 12:40:40;;;;;;;;;;;22.40;50.90;;;;;;4992774;28;1003;-42
2022/01/23 12:43:08;;;;;;;;;;;22.40;49.90;;;;;;4992612;28;1899;-42
2022/01/23 12:45:53;;;;;;;;;;;22.30;50.70;;;;;;4993428;28;1044;-43
2022/01/23 12:48:45;;;;;;;;;;;22.20;51.50;;;;;;4993557;28;971;-42
2022/01/23 12:51:32;;;;;;;;;;;22.30;51.90;;;;;;4992883;28;935;-43
2022/01/23 12:54:13;;;;;;;;;;;22.40;52.20;;;;;;4993226;28;986;-42
2022/01/23 12:56:43;;;;;;;;;;;22.50;52.40;;;;;;4993726;28;1560;-43
2022/01/23 12:59:12;;;;;;;;;;;22.60;52.60;;;;;;4993407;28;919;-42
2022/01/23 13:01:42;;;;;;;;;;;22.50;52.80;;;;;;4993298;28;1900;-43
2022/01/23 13:04:10;;;;;;;;;;;22.50;53.10;;;;;;4992254;28;1019;-42
2022/01/23 13:06:40;;;;;;;;;;;22.60;53.20;;;;;;4992878;28;1171;-43
2022/01/23 13:09:14;;;;;;;;;;;22.60;53.10;;;;;;4991966;28;1023;-43
2022/01/23 13:11:55;;;;;;;;;;;22.70;53.20;;;;;;4991741;28;1084;-44
2022/01/23 13:14:27;;;;;;;;;;;22.70;53.20;;;;;;4991728;28;1083;-43
2022/01/23 13:17:27;;;;;;;;;;;22.70;53.20;;;;;;4992705;28;920;-42
2022/01/23 13:26:23;;;;;;;;;;;22.80;53.40;;;;;;4993589;28;1982;-42
2022/01/23 13:31:08;;;;;;;;;;;22.80;53.60;;;;;;4991832;28;771;-42
2022/01/23 13:33:38;;;;;;;;;;;22.70;53.80;;;;;;4990458;28;1030;-43
2022/01/23 13:36:09;;;;;;;;;;;22.80;53.50;;;;;;4991111;28;984;-43
2022/01/23 13:38:38;;;;;;;;;;;22.80;53.30;;;;;;4990536;28;1018;-43
2022/01/23 13:41:13;;;;;;;;;;;22.80;53.30;;;;;;4991782;28;932;-42
2022/01/23 13:52:36;;;;;;;;;;;22.80;53.60;;;;;;4989227;28;1132;-43
2022/01/23 13:58:08;;;;;;;;;;;22.70;54.20;;;;;;4975279;28;1091;-43
2022/01/23 14:00:34;;;;;;;;;;;22.70;53.90;;;;;;4997204;28;2419;-43
2022/01/23 14:03:01;;;;;;;;;;;22.70;54.20;;;;;;4997322;28;1906;-43
2022/01/23 14:05:29;;;;;;;;;;;22.50;54.40;;;;;;4997009;28;944;-42
2022/01/23 14:07:58;;;;;;;;;;;22.50;54.30;;;;;;4996833;28;956;-42
2022/01/23 14:10:27;;;;;;;;;;;22.50;54.20;;;;;;4997133;28;1018;-38
2022/01/23 14:12:55;;;;;;;;;;;22.50;54.20;;;;;;4996966;28;939;-39
2022/01/23 14:15:23;;;;;;;;;;;22.50;54.50;;;;;;4997467;28;1026;-38
2022/01/23 14:17:57;;;;;;;;;;;22.50;54.20;;;;;;4997032;28;1011;-37
2022/01/23 14:20:24;;;;;;;;;;;22.70;54.60;;;;;;4997836;28;916;-38
2022/01/23 14:22:51;;;;;;;;;;;22.60;54.20;;;;;;4996640;28;1883;-37
2022/01/23 14:25:20;;;;;;;;;;;22.70;54.10;;;;;;4996354;28;872;-37
2022/01/23 14:27:48;;;;;;;;;;;22.80;53.60;;;;;;4996266;28;984;-39
2022/01/23 14:30:19;;;;;;;;;;;22.70;53.30;;;;;;4996275;28;996;-37
2022/01/23 14:32:49;;;;;;;;;;;22.70;53.60;;;;;;5003562;28;848;-37
2022/01/23 14:35:17;;;;;;;;;;;22.70;53.30;;;;;;4996855;28;1051;-39
2022/01/23 14:37:45;;;;;;;;;;;22.90;52.80;;;;;;4995631;28;1011;-40
2022/01/23 14:40:16;;;;;;;;;;;22.90;52.20;;;;;;4995262;28;1478;-38
2022/01/23 14:42:58;;;;;;;;;;;22.80;52.20;;;;;;4997155;28;1902;-38
2022/01/23 14:45:26;;;;;;;;;;;23.00;52.60;;;;;;4995374;28;1193;-39
2022/01/23 14:47:53;;;;;;;;;;;23.00;52.70;;;;;;4994418;28;881;-41
2022/01/23 14:50:23;;;;;;;;;;;23.00;52.40;;;;;;4993648;28;984;-40
2022/01/23 14:52:51;;;;;;;;;;;23.00;52.60;;;;;;4994440;28;1027;-37
2022/01/23 14:55:20;;;;;;;;;;;23.00;52.50;;;;;;4995348;28;972;-38
2022/01/23 14:57:47;;;;;;;;;;;23.00;52.40;;;;;;4995252;28;988;-38
2022/01/23 15:00:16;;;;;;;;;;;23.10;52.10;;;;;;4995407;28;1136;-38
2022/01/23 15:02:44;;;;;;;;;;;23.10;51.80;;;;;;4994830;28;1989;-35
2022/01/23 15:05:11;;;;;;;;;;;23.20;51.60;;;;;;4995069;28;937;-42
2022/01/23 15:07:39;;;;;;;;;;;23.10;51.90;;;;;;4994590;28;960;-42
2022/01/23 15:10:06;;;;;;;;;;;23.00;52.40;;;;;;4995081;28;1076;-44
2022/01/23 15:12:33;;;;;;;;;;;23.00;52.40;;;;;;4992972;28;996;-42
2022/01/23 15:15:00;;;;;;;;;;;23.00;52.10;;;;;;4994961;28;1016;-42
2022/01/23 15:17:27;;;;;;;;;;;23.00;52.20;;;;;;4994278;28;1028;-45
2022/01/23 15:19:55;;;;;;;;;;;22.90;52.50;;;;;;4994270;28;1015;-42
2022/01/23 15:22:25;;;;;;;;;;;22.80;53.80;;;;;;4993831;28;1898;-45
2022/01/23 15:24:52;;;;;;;;;;;22.80;52.80;;;;;;4993810;28;879;-42
2022/01/23 15:27:18;;;;;;;;;;;22.80;52.90;;;;;;4994521;28;1080;-42
2022/01/23 15:29:45;;;;;;;;;;;22.80;52.80;;;;;;4993721;28;941;-43
2022/01/23 15:32:12;;;;;;;;;;;22.80;53.00;;;;;;4995084;28;1031;-42
2022/01/23 15:34:39;;;;;;;;;;;22.70;53.10;;;;;;4995070;28;988;-43
2022/01/23 15:37:07;;;;;;;;;;;22.70;53.30;;;;;;4994802;28;1007;-43
2022/01/23 15:39:34;;;;;;;;;;;22.70;53.30;;;;;;4994431;28;1020;-42
2022/01/23 15:42:01;;;;;;;;;;;22.70;53.40;;;;;;4995221;28;1898;-43
2022/01/23 15:44:27;;;;;;;;;;;22.60;53.50;;;;;;4954554;28;1113137;-43
2022/01/23 15:46:54;;;;;;;;;;;22.60;53.50;;;;;;4995527;28;1377;-40
2022/01/23 15:49:21;;;;;;;;;;;22.70;53.30;;;;;;4995959;28;1017;-40
2022/01/23 15:51:48;;;;;;;;;;;22.70;53.30;;;;;;4994200;28;1303;-39
2022/01/23 15:54:17;;;;;;;;;;;22.80;53.00;;;;;;4994727;28;1251;-39
2022/01/23 15:56:45;;;;;;;;;;;22.80;53.10;;;;;;4994354;28;1051;-40
2022/01/23 15:59:12;;;;;;;;;;;22.80;53.00;;;;;;4994528;28;1048;-40
2022/01/23 16:01:39;;;;;;;;;;;22.80;53.20;;;;;;4995316;28;868;-40
2022/01/23 16:04:05;;;;;;;;;;;22.80;53.30;;;;;;4995348;28;1906;-40
2022/01/23 16:06:32;;;;;;;;;;;22.80;53.20;;;;;;4996028;28;1080;-38
2022/01/23 16:08:59;;;;;;;;;;;22.80;53.20;;;;;;4995579;28;1008;-40
2022/01/23 16:11:27;;;;;;;;;;;22.80;53.30;;;;;;4995907;28;928;-41
2022/01/23 16:13:54;;;;;;;;;;;22.70;53.20;;;;;;4994816;28;1033;-39
2022/01/23 16:16:20;;;;;;;;;;;22.80;53.30;;;;;;4994665;28;992;-39
2022/01/23 16:18:47;;;;;;;;;;;22.80;53.20;;;;;;4995138;28;980;-40
2022/01/23 16:21:14;;;;;;;;;;;22.70;53.30;;;;;;4995813;28;996;-42
2022/01/23 16:23:41;;;;;;;;;;;22.60;53.40;;;;;;4995320;28;1907;-41
2022/01/23 16:26:07;;;;;;;;;;;22.50;53.50;;;;;;4995256;28;992;-42
2022/01/23 16:28:36;;;;;;;;;;;22.60;53.30;;;;;;4994441;28;976;-41
2022/01/23 16:31:02;;;;;;;;;;;22.70;53.10;;;;;;4994802;28;968;-41
2022/01/23 16:33:30;;;;;;;;;;;22.80;53.00;;;;;;4995001;28;980;-36
2022/01/23 16:35:57;;;;;;;;;;;22.70;53.10;;;;;;4994751;28;1147;-36
2022/01/23 16:38:24;;;;;;;;;;;22.80;52.90;;;;;;4994240;28;1020;-36
2022/01/23 16:40:54;;;;;;;;;;;22.80;52.90;;;;;;4995645;28;976;-37
2022/01/23 16:43:21;;;;;;;;;;;22.70;53.10;;;;;;4994728;28;1914;-37
2022/01/23 16:45:50;;;;;;;;;;;22.60;53.60;;;;;;4995185;28;1157;-37
2022/01/23 16:48:16;;;;;;;;;;;22.60;53.60;;;;;;4993740;28;980;-37
2022/01/23 16:50:43;;;;;;;;;;;22.60;53.60;;;;;;4995307;28;995;-39
2022/01/23 16:53:10;;;;;;;;;;;22.50;53.70;;;;;;4993986;28;997;-38
2022/01/23 16:55:37;;;;;;;;;;;22.50;53.90;;;;;;4994930;28;1039;-38
2022/01/23 16:58:04;;;;;;;;;;;22.50;53.90;;;;;;4995451;28;992;-38
2022/01/23 17:00:31;;;;;;;;;;;22.50;54.00;;;;;;4994749;28;990;-38
2022/01/23 17:03:00;;;;;;;;;;;22.50;54.10;;;;;;4995073;28;1894;-38
2022/01/23 17:05:27;;;;;;;;;;;22.40;54.40;;;;;;4995066;28;1013;-38
2022/01/23 17:07:53;;;;;;;;;;;22.40;54.40;;;;;;4995005;28;1072;-38
2022/01/23 17:10:20;;;;;;;;;;;22.40;54.40;;;;;;4995435;28;973;-38
2022/01/23 17:12:47;;;;;;;;;;;22.40;54.80;;;;;;4995167;28;953;-38
2022/01/23 17:15:14;;;;;;;;;;;22.40;54.80;;;;;;4994882;28;1789;-37
2022/01/23 17:17:40;;;;;;;;;;;22.40;55.00;;;;;;4994791;28;1019;-37
2022/01/23 17:20:09;;;;;;;;;;;22.50;55.00;;;;;;4994773;28;1020;-38
2022/01/23 17:22:36;;;;;;;;;;;22.50;54.70;;;;;;4994602;28;1894;-38
2022/01/23 17:25:03;;;;;;;;;;;22.40;54.80;;;;;;4994714;28;1024;-38
2022/01/23 17:27:29;;;;;;;;;;;22.50;55.00;;;;;;4994279;28;1689;-38